Time;durP1;ratioP1;P1;durP2;ratioP2;P2;SDS_P1;SDS_P2;PMS_P1;PMS_P2;Temp;Humidity;BMP_temperature;BMP_pressure;BME280_temperature;BME280_humidity;BME280_pressure;Samples;Min_cycle;Max_cycle;Signal;HPM_P1;HPM_P2
2022/03/09 00:01:16;;;;;;;6.05;3.58;;;-6.40;67.70;;;;;;5074642;28;20059;-79
2022/03/09 00:03:42;;;;;;;6.53;4.18;;;-6.40;67.20;;;;;;5057327;28;20117;-79
2022/03/09 00:06:08;;;;;;;7.30;4.78;;;-6.40;67.30;;;;;;5077603;28;20024;-81
2022/03/09 00:08:33;;;;;;;8.57;3.92;;;-6.40;67.50;;;;;;5074543;28;20025;-80
2022/03/09 00:10:59;;;;;;;3.92;2.83;;;-6.50;67.10;;;;;;5088877;28;20023;-80
2022/03/09 00:13:25;;;;;;;3.85;2.50;;;-6.50;67.40;;;;;;5086924;28;20044;-82
2022/03/09 00:15:51;;;;;;;6.07;2.97;;;-6.60;67.10;;;;;;5072235;28;20032;-80
2022/03/09 00:18:16;;;;;;;2.97;2.33;;;-6.60;66.90;;;;;;5089878;28;20035;-79
2022/03/09 00:20:42;;;;;;;4.70;3.28;;;-6.70;67.30;;;;;;5112697;28;20035;-81
2022/03/09 00:23:08;;;;;;;6.28;3.88;;;-6.80;67.50;;;;;;5112440;28;20023;-81
2022/03/09 00:25:34;;;;;;;4.05;3.00;;;-6.80;67.50;;;;;;5112429;28;20038;-81
2022/03/09 00:27:59;;;;;;;6.53;3.72;;;-6.90;67.30;;;;;;5112621;28;20016;-80
2022/03/09 00:30:25;;;;;;;5.47;3.38;;;-6.80;67.50;;;;;;5112494;28;20028;-80
2022/03/09 00:32:51;;;;;;;5.57;2.88;;;-6.80;67.70;;;;;;5112224;28;20024;-80
2022/03/09 00:35:17;;;;;;;7.72;3.80;;;-6.80;67.90;;;;;;5112558;28;20030;-80
2022/03/09 00:37:42;;;;;;;5.00;3.50;;;-6.80;67.60;;;;;;5112169;28;20035;-81
2022/03/09 00:40:08;;;;;;;9.10;4.97;;;-6.90;67.60;;;;;;5112172;28;20069;-82
2022/03/09 00:42:36;;;;;;;6.57;3.35;;;-6.90;67.10;;;;;;5112074;28;20023;-80
2022/03/09 00:45:03;;;;;;;5.53;2.67;;;-6.90;66.80;;;;;;5114302;28;20028;-81
2022/03/09 00:47:28;;;;;;;5.22;3.25;;;-7.10;66.90;;;;;;5103725;28;20020;-80
2022/03/09 00:49:54;;;;;;;4.18;2.45;;;-7.10;67.10;;;;;;5095752;28;20442;-81
2022/03/09 00:52:20;;;;;;;8.02;3.92;;;-7.20;67.10;;;;;;5095520;28;20020;-80
2022/03/09 00:54:47;;;;;;;7.25;4.07;;;-7.20;67.50;;;;;;5095603;28;20016;-80
2022/03/09 00:57:13;;;;;;;7.13;3.97;;;-7.30;67.70;;;;;;5096127;28;20152;-81
2022/03/09 00:59:39;;;;;;;8.95;2.97;;;-7.30;67.40;;;;;;5095762;28;20073;-81
2022/03/09 01:02:05;;;;;;;6.30;3.65;;;-7.30;67.30;;;;;;5095582;28;20477;-81
2022/03/09 01:04:34;;;;;;;5.15;3.88;;;-7.40;67.30;;;;;;5095312;28;20020;-80
2022/03/09 01:07:00;;;;;;;8.68;2.88;;;-7.30;67.70;;;;;;5094862;28;20127;-78
2022/03/09 01:09:26;;;;;;;6.22;3.22;;;-7.40;67.50;;;;;;5095182;28;20047;-78
2022/03/09 01:11:51;;;;;;;8.82;4.70;;;-7.50;67.30;;;;;;5098351;28;20024;-79
2022/03/09 01:14:17;;;;;;;8.60;4.13;;;-7.50;67.80;;;;;;5080548;28;20056;-79
2022/03/09 01:16:43;;;;;;;6.03;3.40;;;-7.50;68.00;;;;;;5095963;28;20115;-80
2022/03/09 01:19:09;;;;;;;6.28;2.60;;;-7.50;67.90;;;;;;5095009;28;20031;-78
2022/03/09 01:21:34;;;;;;;1.80;1.67;;;-7.50;67.80;;;;;;5095048;28;20024;-80
2022/03/09 01:24:01;;;;;;;2.97;2.17;;;-7.50;67.70;;;;;;5079544;28;20031;-78
2022/03/09 01:26:26;;;;;;;7.05;3.28;;;-7.60;68.00;;;;;;5085842;28;20035;-80
2022/03/09 01:28:53;;;;;;;6.05;4.20;;;-7.60;67.30;;;;;;5074728;28;20024;-81
2022/03/09 01:31:19;;;;;;;6.68;3.85;;;-7.60;67.60;;;;;;5074618;28;20043;-79
2022/03/09 01:33:45;;;;;;;4.68;3.38;;;-7.70;67.90;;;;;;5074405;28;20028;-79
2022/03/09 01:36:11;;;;;;;6.90;3.40;;;-7.70;68.00;;;;;;5074272;28;20470;-79
2022/03/09 01:38:36;;;;;;;4.38;2.63;;;-7.80;67.80;;;;;;5074494;28;20028;-78
2022/03/09 01:41:02;;;;;;;6.25;4.18;;;-7.90;68.10;;;;;;5057186;28;20025;-80
2022/03/09 01:43:28;;;;;;;6.22;3.90;;;-8.00;68.20;;;;;;5076081;28;20096;-79
2022/03/09 01:45:54;;;;;;;3.95;2.67;;;-8.10;68.30;;;;;;5089596;28;20054;-78
2022/03/09 01:48:20;;;;;;;8.35;3.35;;;-8.10;68.60;;;;;;5099030;28;20012;-80
2022/03/09 01:50:46;;;;;;;4.10;2.80;;;-8.20;68.40;;;;;;5076497;28;20032;-79
2022/03/09 01:53:12;;;;;;;7.13;3.72;;;-8.30;68.80;;;;;;5094213;28;20380;-78
2022/03/09 01:55:38;;;;;;;4.50;2.63;;;-8.30;69.80;;;;;;5093588;28;20116;-79
2022/03/09 01:58:04;;;;;;;9.20;4.07;;;-8.30;69.40;;;;;;5093934;28;20042;-78
2022/03/09 02:00:30;;;;;;;7.05;3.08;;;-8.40;69.00;;;;;;5094139;28;20460;-80
2022/03/09 02:02:56;;;;;;;9.93;3.63;;;-8.40;69.00;;;;;;5076902;28;20033;-80
2022/03/09 02:05:23;;;;;;;5.85;3.33;;;-8.40;69.10;;;;;;5074226;28;20051;-79
2022/03/09 02:10:34;;;;;;;10.93;4.65;;;-8.50;69.70;;;;;;5086988;28;20039;-77
2022/03/09 02:13:00;;;;;;;7.10;4.23;;;-8.50;69.70;;;;;;5080794;28;20045;-79
2022/03/09 02:15:26;;;;;;;8.70;4.00;;;-8.60;69.80;;;;;;5074937;28;20024;-78
2022/03/09 02:17:51;;;;;;;7.90;4.30;;;-8.50;70.00;;;;;;5075076;28;20378;-79
2022/03/09 02:20:17;;;;;;;8.02;3.78;;;-8.60;69.70;;;;;;5075280;28;20024;-78
2022/03/09 02:22:43;;;;;;;8.73;4.35;;;-8.60;69.80;;;;;;5074444;28;20494;-78
2022/03/09 02:25:13;;;;;;;7.22;3.70;;;-8.60;69.80;;;;;;5073856;28;20048;-79
2022/03/09 02:27:40;;;;;;;8.15;4.30;;;-8.60;70.00;;;;;;5073511;28;20074;-80
2022/03/09 02:30:07;;;;;;;4.88;3.00;;;-8.70;70.20;;;;;;5073703;28;20052;-79
2022/03/09 02:32:38;;;;;;;6.15;4.22;;;-8.70;70.30;;;;;;5075076;28;20065;-81
2022/03/09 02:35:04;;;;;;;7.25;4.07;;;-8.70;70.40;;;;;;5095006;28;20032;-80
2022/03/09 02:37:30;;;;;;;5.82;3.85;;;-8.70;70.40;;;;;;5094225;28;20111;-78
2022/03/09 02:39:56;;;;;;;7.50;3.22;;;-8.70;70.60;;;;;;5093692;28;20028;-80
2022/03/09 02:42:22;;;;;;;7.93;3.90;;;-8.80;70.60;;;;;;5093449;28;20035;-80
2022/03/09 02:44:47;;;;;;;9.52;3.80;;;-8.80;70.70;;;;;;5093252;28;20531;-81
2022/03/09 02:47:13;;;;;;;12.73;3.95;;;-8.80;70.80;;;;;;5077394;28;20021;-80
2022/03/09 02:49:39;;;;;;;5.65;4.13;;;-8.80;70.80;;;;;;5073083;28;20029;-78
2022/03/09 02:52:05;;;;;;;6.03;4.05;;;-8.80;71.00;;;;;;5061159;28;20028;-78
2022/03/09 02:54:31;;;;;;;10.88;3.90;;;-8.80;71.00;;;;;;5097622;28;20027;-80
2022/03/09 02:56:57;;;;;;;8.48;5.18;;;-8.80;71.00;;;;;;5093233;28;20031;-80
2022/03/09 02:59:22;;;;;;;6.63;4.28;;;-8.80;71.00;;;;;;5093810;28;20151;-83
2022/03/09 03:01:48;;;;;;;7.32;4.38;;;-8.90;70.90;;;;;;5098317;28;20028;-81
2022/03/09 03:04:14;;;;;;;4.35;2.97;;;-8.90;71.10;;;;;;5079953;28;20428;-79
2022/03/09 03:06:40;;;;;;;7.93;4.43;;;-8.90;71.10;;;;;;5094101;28;20016;-79
2022/03/09 03:09:06;;;;;;;3.17;2.65;;;-8.90;71.00;;;;;;5093002;28;20024;-80
2022/03/09 03:11:31;;;;;;;5.32;4.13;;;-9.00;70.70;;;;;;5092926;28;20023;-80
2022/03/09 03:13:57;;;;;;;6.57;4.13;;;-9.00;70.70;;;;;;5092570;28;20051;-79
2022/03/09 03:16:23;;;;;;;9.93;4.15;;;-9.10;70.80;;;;;;5092527;28;20021;-81
2022/03/09 03:18:49;;;;;;;5.60;3.33;;;-9.10;71.00;;;;;;5091752;28;20035;-82
2022/03/09 03:21:14;;;;;;;7.22;4.25;;;-9.10;71.00;;;;;;5092745;28;20027;-81
2022/03/09 03:23:40;;;;;;;6.40;3.67;;;-9.10;71.20;;;;;;5092535;28;20024;-81
2022/03/09 03:26:06;;;;;;;7.30;5.07;;;-9.20;71.20;;;;;;5092688;28;20027;-80
2022/03/09 03:28:32;;;;;;;7.35;3.90;;;-9.10;71.30;;;;;;5092474;28;20056;-80
2022/03/09 03:30:58;;;;;;;6.97;4.15;;;-9.10;71.50;;;;;;5092397;28;20017;-82
2022/03/09 03:33:25;;;;;;;7.93;4.82;;;-9.20;71.50;;;;;;5092499;28;20085;-81
2022/03/09 03:35:51;;;;;;;5.47;4.32;;;-9.20;71.70;;;;;;5091515;28;20376;-80
2022/03/09 03:38:17;;;;;;;11.37;4.63;;;-9.20;71.60;;;;;;5092433;28;20240;-81
2022/03/09 03:40:44;;;;;;;4.57;3.53;;;-9.20;71.40;;;;;;5092363;28;20248;-80
2022/03/09 03:43:10;;;;;;;5.55;4.45;;;-9.20;71.40;;;;;;5092992;28;20373;-81
2022/03/09 03:45:36;;;;;;;12.97;4.90;;;-9.20;71.50;;;;;;5074618;28;20115;-81
2022/03/09 03:48:02;;;;;;;5.22;3.55;;;-9.30;71.50;;;;;;5091593;28;20674;-79
2022/03/09 03:50:28;;;;;;;6.27;3.40;;;-9.30;71.50;;;;;;5092497;28;20047;-81
2022/03/09 03:52:54;;;;;;;7.15;4.25;;;-9.30;71.60;;;;;;5085510;28;20028;-80
2022/03/09 03:55:20;;;;;;;8.77;4.57;;;-9.30;71.60;;;;;;5073986;28;20013;-81
2022/03/09 03:57:45;;;;;;;6.93;4.40;;;-9.30;71.40;;;;;;5072346;28;20084;-82
2022/03/09 04:00:13;;;;;;;8.63;4.80;;;-9.30;71.30;;;;;;5072374;28;20179;-81
2022/03/09 04:02:38;;;;;;;7.68;4.85;;;-9.30;71.20;;;;;;5072161;28;20071;-83
2022/03/09 04:05:05;;;;;;;8.63;4.90;;;-9.30;71.20;;;;;;5072482;28;20028;-81
2022/03/09 04:07:32;;;;;;;8.38;6.45;;;-9.30;71.40;;;;;;5072365;28;20040;-82
2022/03/09 04:09:58;;;;;;;7.40;4.82;;;-9.30;71.50;;;;;;5085462;28;20028;-81
2022/03/09 04:12:24;;;;;;;6.65;5.10;;;-9.30;71.70;;;;;;5075376;28;20646;-81
2022/03/09 04:14:50;;;;;;;7.93;4.20;;;-9.30;71.70;;;;;;5093002;28;20480;-81
2022/03/09 04:17:16;;;;;;;12.05;4.72;;;-9.40;71.60;;;;;;5092104;28;20050;-81
2022/03/09 04:19:42;;;;;;;8.95;4.53;;;-9.40;71.60;;;;;;5093672;28;20036;-81
2022/03/09 04:22:08;;;;;;;4.97;3.72;;;-9.40;71.70;;;;;;5096314;28;20047;-80
2022/03/09 04:24:34;;;;;;;6.65;4.93;;;-9.40;71.60;;;;;;5098904;28;20573;-81
2022/03/09 04:26:59;;;;;;;7.93;4.63;;;-9.40;71.60;;;;;;5103331;28;20039;-83
2022/03/09 04:29:25;;;;;;;9.85;5.07;;;-9.40;71.60;;;;;;5102064;28;20030;-83
2022/03/09 04:31:51;;;;;;;9.70;4.00;;;-9.40;71.60;;;;;;5100140;28;20431;-81
2022/03/09 04:34:17;;;;;;;6.55;3.72;;;-9.40;71.60;;;;;;5096655;28;20031;-81
2022/03/09 04:36:42;;;;;;;7.63;4.20;;;-9.40;71.60;;;;;;5095656;28;20028;-81
2022/03/09 04:39:08;;;;;;;6.88;3.92;;;-9.40;71.50;;;;;;5078064;28;20469;-79
2022/03/09 04:41:34;;;;;;;10.45;5.13;;;-9.30;71.50;;;;;;5096659;28;20027;-81
2022/03/09 04:44:00;;;;;;;6.90;4.75;;;-9.20;71.30;;;;;;5096765;28;20461;-80
2022/03/09 04:46:26;;;;;;;7.30;4.25;;;-9.10;71.30;;;;;;5095508;28;20082;-81
2022/03/09 04:48:52;;;;;;;5.70;4.75;;;-9.00;71.20;;;;;;5111615;28;20023;-82
2022/03/09 04:51:17;;;;;;;15.85;6.65;;;-9.00;70.60;;;;;;5110451;28;20024;-84
2022/03/09 04:53:43;;;;;;;11.50;6.07;;;-8.90;70.50;;;;;;5111475;28;20027;-83
2022/03/09 04:56:09;;;;;;;7.28;5.10;;;-8.90;70.70;;;;;;5099933;28;20473;-82
2022/03/09 04:58:35;;;;;;;9.25;5.55;;;-8.90;70.40;;;;;;5099742;28;20024;-83
2022/03/09 05:01:01;;;;;;;9.43;5.85;;;-8.90;70.70;;;;;;5083985;28;20481;-86
2022/03/09 05:03:27;;;;;;;9.65;4.97;;;-8.80;70.40;;;;;;5113777;28;20028;-84
2022/03/09 05:05:53;;;;;;;7.07;4.60;;;-8.80;70.80;;;;;;5095121;28;20059;-83
2022/03/09 05:08:19;;;;;;;13.38;7.00;;;-8.60;70.60;;;;;;5091866;28;20028;-83
2022/03/09 05:10:45;;;;;;;11.75;5.30;;;-8.60;69.80;;;;;;5096779;28;20025;-86
2022/03/09 05:13:10;;;;;;;4.65;3.03;;;-8.60;69.90;;;;;;5097067;28;20399;-82
2022/03/09 05:15:36;;;;;;;9.02;4.28;;;-8.60;69.70;;;;;;5096145;28;20084;-83
2022/03/09 05:18:02;;;;;;;6.20;4.35;;;-8.70;69.90;;;;;;5078475;28;20036;-83
2022/03/09 05:20:28;;;;;;;7.82;5.03;;;-8.70;70.20;;;;;;5079271;28;20024;-84
2022/03/09 05:22:54;;;;;;;9.57;4.70;;;-8.70;69.90;;;;;;5116337;28;20043;-85
2022/03/09 05:25:20;;;;;;;6.95;4.60;;;-8.70;70.00;;;;;;5090397;28;20048;-82
2022/03/09 05:27:46;;;;;;;11.88;4.93;;;-8.50;70.20;;;;;;5104534;28;20480;-84
2022/03/09 05:30:12;;;;;;;9.32;5.30;;;-8.30;70.00;;;;;;5089258;28;20026;-83
2022/03/09 05:32:40;;;;;;;7.45;4.53;;;-8.20;68.80;;;;;;5102125;28;20028;-82
2022/03/09 05:35:06;;;;;;;7.30;4.47;;;-8.10;68.90;;;;;;5082141;28;20157;-82
2022/03/09 05:37:40;;;;;;;7.88;4.60;;;-7.90;68.80;;;;;;5102697;28;20031;-81
2022/03/09 05:40:06;;;;;;;9.57;4.90;;;-7.80;68.50;;;;;;5083546;28;20490;-84
2022/03/09 05:42:33;;;;;;;11.98;5.75;;;-7.80;68.00;;;;;;5099171;28;20020;-83
2022/03/09 05:44:59;;;;;;;10.38;5.18;;;-7.60;68.20;;;;;;5101316;28;20082;-82
2022/03/09 05:47:25;;;;;;;8.32;6.15;;;-7.50;67.60;;;;;;5099672;28;20062;-82
2022/03/09 05:49:51;;;;;;;13.90;5.13;;;-7.50;67.20;;;;;;5103035;28;20028;-82
2022/03/09 05:52:16;;;;;;;12.82;5.75;;;-7.50;66.90;;;;;;5077004;28;20629;-82
2022/03/09 05:54:45;;;;;;;7.72;3.88;;;-7.60;66.90;;;;;;5094762;28;20028;-84
2022/03/09 05:57:12;;;;;;;10.73;5.85;;;-7.70;66.80;;;;;;5095347;28;20435;-84
2022/03/09 05:59:38;;;;;;;9.15;6.57;;;-7.80;67.40;;;;;;5091203;28;20016;-84
2022/03/09 06:02:04;;;;;;;10.15;4.82;;;-8.00;67.60;;;;;;5057183;28;20040;-84
2022/03/09 06:04:30;;;;;;;11.93;5.22;;;-8.10;68.00;;;;;;5081262;28;20472;-84
2022/03/09 06:06:55;;;;;;;20.95;6.78;;;-8.20;68.30;;;;;;5094227;28;20026;-85
2022/03/09 06:09:21;;;;;;;11.30;4.22;;;-8.30;68.40;;;;;;5077324;28;20128;-84
2022/03/09 06:11:47;;;;;;;12.85;6.88;;;-8.30;68.60;;;;;;5074668;28;20401;-82
2022/03/09 06:14:13;;;;;;;11.77;5.20;;;-8.30;68.80;;;;;;5075831;28;20044;-84
2022/03/09 06:16:38;;;;;;;8.82;4.70;;;-8.30;69.60;;;;;;5090628;28;20046;-83
2022/03/09 06:19:04;;;;;;;9.38;5.35;;;-8.30;68.90;;;;;;5085278;28;20024;-87
2022/03/09 06:21:30;;;;;;;11.30;4.53;;;-8.40;69.40;;;;;;5098479;28;20500;-87
2022/03/09 06:23:56;;;;;;;19.33;6.28;;;-8.30;69.60;;;;;;5085003;28;20322;-82
2022/03/09 06:26:22;;;;;;;11.13;5.72;;;-8.30;68.90;;;;;;5056414;28;20219;-82
2022/03/09 06:28:47;;;;;;;10.82;4.63;;;-8.30;67.90;;;;;;5055445;28;20380;-83
2022/03/09 06:31:13;;;;;;;19.70;4.90;;;-8.20;68.20;;;;;;5074623;28;20159;-83
2022/03/09 06:33:39;;;;;;;17.35;7.25;;;-8.20;68.60;;;;;;5092807;28;20036;-83
2022/03/09 06:36:06;;;;;;;7.97;4.32;;;-8.20;68.50;;;;;;5079097;28;20439;-84
2022/03/09 06:38:35;;;;;;;;;;;-8.10;68.30;;;;;;5078134;28;20111;-82
2022/03/09 06:41:01;;;;;;;11.05;5.18;;;-8.10;68.20;;;;;;5094933;28;19908;-82
2022/03/09 06:43:27;;;;;;;12.90;4.18;;;-8.10;68.00;;;;;;5094395;28;20030;-83
2022/03/09 06:45:53;;;;;;;6.43;3.75;;;-8.00;67.90;;;;;;5077913;28;20481;-80
2022/03/09 06:48:18;;;;;;;8.07;5.18;;;-7.90;67.20;;;;;;5101341;28;20081;-81
2022/03/09 06:50:44;;;;;;;10.40;4.65;;;-8.00;67.10;;;;;;5096590;28;20024;-82
2022/03/09 06:53:11;;;;;;;10.23;5.13;;;-7.90;67.30;;;;;;5094234;28;20067;-83
2022/03/09 06:55:37;;;;;;;11.10;7.05;;;-7.80;67.40;;;;;;5080638;28;20035;-84
2022/03/09 06:58:03;;;;;;;6.35;4.10;;;-7.80;66.30;;;;;;5073785;28;20032;-82
2022/03/09 07:00:29;;;;;;;8.63;4.00;;;-7.70;66.40;;;;;;5074153;28;20066;-85
2022/03/09 07:02:56;;;;;;;12.20;5.47;;;-7.70;66.70;;;;;;5073949;28;20429;-83
2022/03/09 07:05:23;;;;;;;9.07;5.28;;;-7.70;66.90;;;;;;5073339;28;20095;-82
2022/03/09 07:07:49;;;;;;;7.07;4.97;;;-7.60;67.00;;;;;;5073502;28;20032;-83
2022/03/09 07:10:15;;;;;;;9.40;5.20;;;-7.50;66.60;;;;;;5062947;28;20020;-83
2022/03/09 07:12:43;;;;;;;11.20;4.15;;;-7.40;65.70;;;;;;5092730;28;20448;-83
2022/03/09 07:15:09;;;;;;;9.70;4.55;;;-7.30;65.40;;;;;;5074852;28;20027;-81
2022/03/09 07:17:35;;;;;;;12.55;4.13;;;-7.30;65.70;;;;;;5092818;28;20036;-82
2022/03/09 07:20:01;;;;;;;4.88;2.70;;;-7.30;64.70;;;;;;5074499;28;20070;-82
2022/03/09 07:22:27;;;;;;;6.72;4.22;;;-7.40;63.80;;;;;;5092574;28;20060;-82
2022/03/09 07:24:52;;;;;;;8.98;4.40;;;-7.40;64.80;;;;;;5074352;28;20020;-82
2022/03/09 07:27:18;;;;;;;10.98;4.70;;;-7.30;64.40;;;;;;5073917;28;20024;-82
2022/03/09 07:29:44;;;;;;;16.13;6.43;;;-7.20;64.80;;;;;;5093266;28;20058;-83
2022/03/09 07:32:14;;;;;;;5.22;3.28;;;-7.10;65.60;;;;;;5093227;28;20047;-82
2022/03/09 07:34:40;;;;;;;10.75;4.97;;;-6.90;64.80;;;;;;5093696;28;20020;-81
2022/03/09 07:37:06;;;;;;;10.40;4.10;;;-6.80;64.60;;;;;;5092351;28;20066;-84
2022/03/09 07:39:32;;;;;;;12.00;4.60;;;-6.70;64.20;;;;;;5098043;28;20032;-81
2022/03/09 07:41:58;;;;;;;13.27;7.68;;;-6.60;63.20;;;;;;5077673;28;20477;-82
2022/03/09 07:44:25;;;;;;;8.30;4.03;;;-5.70;62.60;;;;;;5075143;28;20057;-81
2022/03/09 07:46:51;;;;;;;11.18;6.05;;;-3.90;64.00;;;;;;5096966;28;20078;-83
2022/03/09 07:49:18;;;;;;;8.60;6.20;;;-1.80;60.70;;;;;;5099289;28;20031;-82
2022/03/09 07:51:45;;;;;;;5.88;4.20;;;0.10;55.50;;;;;;5093309;28;20024;-82
2022/03/09 07:54:11;;;;;;;17.23;5.43;;;1.50;50.20;;;;;;5077689;28;20048;-82
2022/03/09 07:56:38;;;;;;;6.82;5.07;;;2.50;46.30;;;;;;5072112;28;20068;-81
2022/03/09 07:59:05;;;;;;;5.63;4.50;;;2.70;40.70;;;;;;5073335;28;20025;-81
2022/03/09 08:01:31;;;;;;;9.18;4.68;;;2.40;40.70;;;;;;5073789;28;20021;-83
2022/03/09 08:03:57;;;;;;;8.07;4.20;;;1.90;39.40;;;;;;5056162;28;20071;-80
2022/03/09 08:06:22;;;;;;;7.88;4.65;;;1.60;40.60;;;;;;5073230;28;20042;-82
2022/03/09 08:08:51;;;;;;;9.60;5.15;;;2.40;41.30;;;;;;5073074;28;20017;-83
2022/03/09 08:11:17;;;;;;;9.98;5.13;;;3.70;40.20;;;;;;5071937;28;20024;-83
2022/03/09 08:13:43;;;;;;;13.50;5.93;;;4.50;36.80;;;;;;5071964;28;20040;-84
2022/03/09 08:16:09;;;;;;;16.88;5.55;;;5.00;35.30;;;;;;5076075;28;20013;-81
2022/03/09 08:18:35;;;;;;;11.02;5.78;;;5.10;35.90;;;;;;5074680;28;20116;-83
2022/03/09 08:21:03;;;;;;;7.95;4.57;;;5.70;35.80;;;;;;5096521;28;20031;-80
2022/03/09 08:23:29;;;;;;;9.23;4.38;;;5.50;33.80;;;;;;5093449;28;20032;-80
2022/03/09 08:25:55;;;;;;;7.78;4.90;;;5.00;32.10;;;;;;5074658;28;20020;-82
2022/03/09 08:28:20;;;;;;;9.05;4.35;;;4.20;32.60;;;;;;5073436;28;20024;-79
2022/03/09 08:30:46;;;;;;;13.80;4.50;;;4.50;35.10;;;;;;5073881;28;20034;-82
2022/03/09 08:33:12;;;;;;;14.63;4.93;;;5.90;34.30;;;;;;5091886;28;20104;-79
2022/03/09 08:35:38;;;;;;;5.18;4.30;;;6.90;31.60;;;;;;5091457;28;20021;-81
2022/03/09 08:38:04;;;;;;;9.13;5.75;;;6.40;30.20;;;;;;5092395;28;20036;-82
2022/03/09 08:40:31;;;;;;;11.32;3.85;;;6.30;31.40;;;;;;5092157;28;20032;-81
2022/03/09 08:42:56;;;;;;;10.77;4.88;;;6.40;30.90;;;;;;5093728;28;20023;-83
2022/03/09 08:45:25;;;;;;;13.68;4.50;;;6.50;30.00;;;;;;5093205;28;20470;-82
2022/03/09 08:47:51;;;;;;;7.30;4.60;;;6.80;30.90;;;;;;5074397;28;20500;-82
2022/03/09 08:50:20;;;;;;;7.03;3.60;;;7.40;29.30;;;;;;5074378;28;20024;-84
2022/03/09 08:52:46;;;;;;;7.00;4.22;;;6.60;28.90;;;;;;5091975;28;20078;-82
2022/03/09 08:55:12;;;;;;;9.40;4.03;;;5.30;30.00;;;;;;5091794;28;20448;-84
2022/03/09 08:57:38;;;;;;;6.18;3.20;;;5.10;30.00;;;;;;5074556;28;20028;-83
2022/03/09 09:00:05;;;;;;;8.88;4.43;;;4.30;31.00;;;;;;5091679;28;20024;-81
2022/03/09 09:02:31;;;;;;;10.13;3.72;;;4.40;32.70;;;;;;5091614;28;20028;-82
2022/03/09 09:04:57;;;;;;;7.38;3.58;;;5.70;32.30;;;;;;5093523;28;20111;-83
2022/03/09 09:07:27;;;;;;;6.82;3.85;;;7.20;30.00;;;;;;5102308;28;20016;-83
2022/03/09 09:09:52;;;;;;;5.93;3.63;;;7.00;28.70;;;;;;5098150;28;20025;-82
2022/03/09 09:12:18;;;;;;;11.70;4.95;;;6.20;29.10;;;;;;5077695;28;20157;-84
2022/03/09 09:14:44;;;;;;;7.72;4.65;;;5.50;29.90;;;;;;5094041;28;20056;-85
2022/03/09 09:17:10;;;;;;;5.78;3.67;;;5.40;30.50;;;;;;5076883;28;20131;-82
2022/03/09 09:19:36;;;;;;;9.85;3.58;;;5.50;29.60;;;;;;5095123;28;20024;-83
2022/03/09 09:22:03;;;;;;;14.65;8.10;;;5.20;30.30;;;;;;5094989;28;20027;-81
2022/03/09 09:24:29;;;;;;;7.13;3.55;;;6.30;31.10;;;;;;5095654;28;20024;-83
2022/03/09 09:26:55;;;;;;;5.13;3.85;;;7.10;29.00;;;;;;5082707;28;20040;-84
2022/03/09 09:29:21;;;;;;;8.27;4.13;;;6.90;28.60;;;;;;5056932;28;20017;-84
2022/03/09 09:31:48;;;;;;;10.05;3.60;;;6.30;29.00;;;;;;5074641;28;20028;-81
2022/03/09 09:34:15;;;;;;;5.17;3.33;;;5.90;29.10;;;;;;5058053;28;20020;-85
2022/03/09 09:36:44;;;;;;;7.13;3.78;;;5.80;29.30;;;;;;5095341;28;20268;-86
2022/03/09 09:39:10;;;;;;;7.13;4.57;;;6.30;29.50;;;;;;5078012;28;20059;-83
2022/03/09 09:41:36;;;;;;;6.65;4.70;;;6.30;29.00;;;;;;5085115;28;20048;-82
2022/03/09 09:44:03;;;;;;;6.95;4.10;;;6.30;28.30;;;;;;5063283;28;20025;-82
2022/03/09 09:46:29;;;;;;;6.80;4.15;;;6.00;28.80;;;;;;5078640;28;20096;-83
2022/03/09 09:48:56;;;;;;;12.45;7.57;;;5.20;29.00;;;;;;5089715;28;20032;-81
2022/03/09 09:51:23;;;;;;;5.68;4.15;;;5.60;30.00;;;;;;5087120;28;20052;-81
2022/03/09 09:53:49;;;;;;;5.60;3.90;;;5.70;29.80;;;;;;5083130;28;20028;-81
2022/03/09 09:56:16;;;;;;;8.32;4.28;;;5.40;29.50;;;;;;5075352;28;20276;-81
2022/03/09 09:58:43;;;;;;;6.70;3.67;;;5.10;29.50;;;;;;5074829;28;20060;-82
2022/03/09 10:01:09;;;;;;;13.60;4.70;;;4.80;30.20;;;;;;5074739;28;20257;-82
2022/03/09 10:03:35;;;;;;;8.57;4.90;;;5.50;30.10;;;;;;5074426;28;20430;-81
2022/03/09 10:06:01;;;;;;;6.40;3.97;;;6.70;29.50;;;;;;5074542;28;20264;-83
2022/03/09 10:08:30;;;;;;;7.63;3.55;;;7.10;28.30;;;;;;5074849;28;20497;-82
2022/03/09 10:11:01;;;;;;;10.48;4.40;;;7.10;28.90;;;;;;5074496;28;20509;-82
2022/03/09 10:13:27;;;;;;;8.32;5.07;;;7.80;27.80;;;;;;5062156;28;20109;-83
2022/03/09 10:16:15;;;;;;;4.63;2.75;;;7.20;28.70;;;;;;5077834;28;20496;-84
2022/03/09 10:18:54;;;;;;;5.35;3.67;;;7.80;27.40;;;;;;5094254;28;20032;-83
2022/03/09 10:21:23;;;;;;;20.38;8.60;;;6.80;27.90;;;;;;5094090;28;20478;-83
2022/03/09 10:23:58;;;;;;;4.82;3.55;;;7.50;28.50;;;;;;5094310;28;20020;-83
2022/03/09 10:26:31;;;;;;;5.00;3.70;;;7.90;27.90;;;;;;5076851;28;20047;-81
2022/03/09 10:29:13;;;;;;;4.05;2.72;;;7.00;26.90;;;;;;5096200;28;20016;-80
2022/03/09 10:31:40;;;;;;;6.30;4.45;;;4.80;27.80;;;;;;5092122;28;20047;-81
2022/03/09 10:34:06;;;;;;;6.53;3.43;;;3.00;29.50;;;;;;5099537;28;20019;-82
2022/03/09 10:36:32;;;;;;;11.35;5.57;;;1.50;30.60;;;;;;5095407;28;20269;-82
2022/03/09 10:39:17;;;;;;;7.13;3.30;;;0.40;32.40;;;;;;5094439;28;20020;-84
2022/03/09 10:41:44;;;;;;;9.07;4.85;;;-0.40;33.80;;;;;;5095356;28;20020;-80
2022/03/09 10:44:13;;;;;;;11.07;4.00;;;-0.90;35.60;;;;;;5093337;28;20036;-82
2022/03/09 10:46:47;;;;;;;8.18;4.05;;;-1.40;37.20;;;;;;5093537;28;20485;-83
2022/03/09 10:49:18;;;;;;;6.45;3.22;;;-1.60;37.10;;;;;;5094247;28;20020;-81
2022/03/09 10:51:50;;;;;;;7.35;3.33;;;-1.80;38.00;;;;;;5100621;28;20039;-81
2022/03/09 10:54:28;;;;;;;5.90;3.67;;;-1.90;38.00;;;;;;5101058;28;20020;-81
2022/03/09 10:57:10;;;;;;;;;;;-2.00;38.50;;;;;;5096007;28;20553;-81
2022/03/09 10:59:52;;;;;;;5.82;3.45;;;-2.20;38.00;;;;;;5097811;28;19911;-81
2022/03/09 11:02:21;;;;;;;7.30;2.92;;;-2.40;40.30;;;;;;5081594;28;20483;-79
2022/03/09 11:05:07;;;;;;;5.43;3.00;;;-2.70;40.10;;;;;;5076026;28;20025;-81
2022/03/09 11:07:38;;;;;;;8.60;3.35;;;-2.80;40.70;;;;;;5075328;28;20021;-81
2022/03/09 11:10:05;;;;;;;6.25;3.15;;;-2.90;41.00;;;;;;5075366;28;20024;-82
2022/03/09 11:12:32;;;;;;;10.73;3.50;;;-3.00;41.00;;;;;;5074909;28;20028;-82
2022/03/09 11:14:58;;;;;;;8.20;3.33;;;-3.10;41.60;;;;;;5074274;28;20036;-82
2022/03/09 11:17:24;;;;;;;5.40;2.70;;;-3.10;41.40;;;;;;5087732;28;20036;-80
2022/03/09 11:19:50;;;;;;;5.18;3.45;;;-3.20;41.30;;;;;;5076056;28;20031;-79
2022/03/09 11:22:17;;;;;;;3.20;2.80;;;-3.30;41.10;;;;;;5094164;28;20043;-82
2022/03/09 11:24:42;;;;;;;3.97;2.97;;;-3.40;40.90;;;;;;5094228;28;20024;-80
2022/03/09 11:27:10;;;;;;;5.13;2.75;;;-3.50;41.20;;;;;;5097300;28;20448;-80
2022/03/09 11:29:36;;;;;;;;;;;-3.60;41.40;;;;;;5096993;28;20051;-81
2022/03/09 11:32:07;;;;;;;7.43;3.90;;;-3.70;41.20;;;;;;5084324;28;19908;-81
2022/03/09 11:34:41;;;;;;;6.82;3.65;;;-3.70;42.40;;;;;;5074571;28;20028;-81
2022/03/09 11:37:32;;;;;;;5.72;2.58;;;-3.80;42.50;;;;;;5092353;28;20063;-81
2022/03/09 11:40:10;;;;;;;5.15;2.97;;;-3.70;42.50;;;;;;5061225;28;20028;-83
2022/03/09 11:42:44;;;;;;;4.72;2.97;;;-3.70;41.80;;;;;;5075242;28;20106;-81
2022/03/09 11:45:29;;;;;;;5.75;3.15;;;-3.60;42.20;;;;;;5093233;28;20377;-81
2022/03/09 11:48:00;;;;;;;4.68;3.25;;;-3.60;42.00;;;;;;5092192;28;20377;-81
2022/03/09 11:50:28;;;;;;;5.68;3.70;;;-3.50;41.90;;;;;;5092927;28;20062;-82
2022/03/09 11:53:06;;;;;;;2.92;2.63;;;-3.50;42.20;;;;;;5092657;28;20034;-81
2022/03/09 11:55:33;;;;;;;5.57;2.75;;;-3.60;42.10;;;;;;5074962;28;20517;-84
2022/03/09 11:58:13;;;;;;;6.22;3.88;;;-3.80;42.20;;;;;;5092781;28;20062;-81
2022/03/09 12:01:01;;;;;;;4.13;2.80;;;-3.80;42.50;;;;;;5092791;28;20477;-81
2022/03/09 12:03:38;;;;;;;6.25;2.30;;;-3.80;41.40;;;;;;5091172;28;20103;-80
2022/03/09 12:06:04;;;;;;;4.90;3.40;;;-3.80;42.00;;;;;;5092700;28;20020;-80
2022/03/09 12:08:46;;;;;;;6.53;3.35;;;-3.80;42.40;;;;;;5093114;28;20032;-81
2022/03/09 12:11:12;;;;;;;4.63;2.65;;;-3.80;42.30;;;;;;5092624;28;20078;-81
2022/03/09 12:13:43;;;;;;;8.32;2.70;;;-3.80;41.80;;;;;;5092208;28;20044;-81
2022/03/09 12:16:26;;;;;;;2.10;1.58;;;-3.80;41.90;;;;;;5092405;28;20354;-81
2022/03/09 12:19:06;;;;;;;4.28;2.72;;;-3.90;40.70;;;;;;5074624;28;20036;-82
2022/03/09 12:21:40;;;;;;;4.85;2.40;;;-4.00;41.90;;;;;;5074155;28;20098;-80
2022/03/09 12:24:05;;;;;;;6.45;2.28;;;-4.00;41.10;;;;;;5092188;28;20024;-82
2022/03/09 12:26:45;;;;;;;6.07;3.58;;;-4.10;41.40;;;;;;5092157;28;20024;-81
2022/03/09 12:29:29;;;;;;;3.90;2.92;;;-4.00;42.10;;;;;;5093719;28;20397;-80
2022/03/09 12:32:02;;;;;;;2.72;1.70;;;-4.00;41.80;;;;;;5091833;28;20032;-82
2022/03/09 12:34:39;;;;;;;10.55;3.72;;;-4.20;41.20;;;;;;5092298;28;20138;-82
2022/03/09 12:37:18;;;;;;;5.53;2.30;;;-4.30;41.80;;;;;;5074229;28;20063;-82
2022/03/09 12:39:53;;;;;;;4.38;3.50;;;-4.30;42.10;;;;;;5093785;28;20078;-81
2022/03/09 12:42:19;;;;;;;5.90;2.35;;;-4.20;41.50;;;;;;5079259;28;20051;-82
2022/03/09 12:44:46;;;;;;;5.70;2.60;;;-4.20;41.60;;;;;;5097859;28;20493;-81
2022/03/09 12:47:12;;;;;;;5.93;3.05;;;-4.20;41.80;;;;;;5095570;28;20470;-81
2022/03/09 12:49:40;;;;;;;6.20;3.42;;;-4.10;42.10;;;;;;5077687;28;20031;-83
2022/03/09 12:52:15;;;;;;;5.15;3.13;;;-4.10;41.70;;;;;;5096575;28;20024;-81